Thank you for your comment!.

Thank you! Your testimonial is pending approval.

METAR:

LFQA 300400Z AUTO 27005KT 240V320 9999 OVC006 11/11 Q1008


live view of the airfield
invoicing legal Notice privacy policy
Cochet Concept
cx